sensor_id;sensor_type;location;lat;lon;timestamp;P1;durP1;ratioP1;P2;durP2;ratioP2
20810;SDS011;10566;52.928;10.522;2023-04-01T00:02:17;6.07;;;1.70;;
20810;SDS011;10566;52.928;10.522;2023-04-01T00:04:43;5.57;;;2.00;;
20810;SDS011;10566;52.928;10.522;2023-04-01T00:07:09;7.37;;;1.70;;
20810;SDS011;10566;52.928;10.522;2023-04-01T00:09:35;8.80;;;2.00;;
20810;SDS011;10566;52.928;10.522;2023-04-01T00:12:02;7.43;;;1.90;;
20810;SDS011;10566;52.928;10.522;2023-04-01T00:14:28;6.67;;;1.90;;
20810;SDS011;10566;52.928;10.522;2023-04-01T00:16:54;8.97;;;2.20;;
20810;SDS011;10566;52.928;10.522;2023-04-01T00:19:20;5.87;;;2.00;;
20810;SDS011;10566;52.928;10.522;2023-04-01T00:21:47;8.90;;;2.27;;
20810;SDS011;10566;52.928;10.522;2023-04-01T00:24:13;9.77;;;1.77;;
20810;SDS011;10566;52.928;10.522;2023-04-01T00:26:39;8.30;;;2.67;;
20810;SDS011;10566;52.928;10.522;2023-04-01T00:29:07;8.47;;;2.20;;
20810;SDS011;10566;52.928;10.522;2023-04-01T00:31:33;8.97;;;3.00;;
20810;SDS011;10566;52.928;10.522;2023-04-01T00:33:59;8.77;;;2.77;;
20810;SDS011;10566;52.928;10.522;2023-04-01T00:36:25;7.70;;;2.40;;
20810;SDS011;10566;52.928;10.522;2023-04-01T00:38:51;10.33;;;2.60;;
20810;SDS011;10566;52.928;10.522;2023-04-01T00:41:18;9.67;;;2.43;;
20810;SDS011;10566;52.928;10.522;2023-04-01T00:43:47;7.43;;;2.70;;
20810;SDS011;10566;52.928;10.522;2023-04-01T00:46:13;10.53;;;3.00;;
20810;SDS011;10566;52.928;10.522;2023-04-01T00:48:41;13.17;;;3.63;;
20810;SDS011;10566;52.928;10.522;2023-04-01T00:53:34;12.73;;;3.43;;
20810;SDS011;10566;52.928;10.522;2023-04-01T00:56:06;9.20;;;3.40;;
20810;SDS011;10566;52.928;10.522;2023-04-01T00:58:35;9.63;;;3.43;;
20810;SDS011;10566;52.928;10.522;2023-04-01T01:01:02;11.43;;;3.50;;
20810;SDS011;10566;52.928;10.522;2023-04-01T01:03:28;9.27;;;3.70;;
20810;SDS011;10566;52.928;10.522;2023-04-01T01:08:28;9.27;;;2.47;;
20810;SDS011;10566;52.928;10.522;2023-04-01T01:10:56;9.37;;;2.90;;
20810;SDS011;10566;52.928;10.522;2023-04-01T01:13:27;10.47;;;2.63;;
20810;SDS011;10566;52.928;10.522;2023-04-01T01:34:44;10.23;;;3.70;;
20810;SDS011;10566;52.928;10.522;2023-04-01T01:36:53;11.97;;;3.67;;
20810;SDS011;10566;52.928;10.522;2023-04-01T01:39:21;11.37;;;3.40;;
20810;SDS011;10566;52.928;10.522;2023-04-01T01:41:53;12.93;;;3.90;;
20810;SDS011;10566;52.928;10.522;2023-04-01T01:44:21;9.93;;;3.30;;
20810;SDS011;10566;52.928;10.522;2023-04-01T01:46:49;10.07;;;3.33;;
20810;SDS011;10566;52.928;10.522;2023-04-01T01:49:16;12.17;;;3.60;;
20810;SDS011;10566;52.928;10.522;2023-04-01T01:51:44;9.70;;;3.13;;
20810;SDS011;10566;52.928;10.522;2023-04-01T01:54:12;14.80;;;3.70;;
20810;SDS011;10566;52.928;10.522;2023-04-01T01:56:39;11.20;;;3.63;;
20810;SDS011;10566;52.928;10.522;2023-04-01T01:59:08;10.17;;;3.23;;
20810;SDS011;10566;52.928;10.522;2023-04-01T02:01:37;11.73;;;3.30;;
20810;SDS011;10566;52.928;10.522;2023-04-01T02:04:04;7.67;;;2.80;;
20810;SDS011;10566;52.928;10.522;2023-04-01T02:06:34;10.17;;;3.10;;
20810;SDS011;10566;52.928;10.522;2023-04-01T02:09:04;10.10;;;3.00;;
20810;SDS011;10566;52.928;10.522;2023-04-01T02:11:56;9.13;;;3.27;;
20810;SDS011;10566;52.928;10.522;2023-04-01T02:14:22;11.30;;;2.80;;
20810;SDS011;10566;52.928;10.522;2023-04-01T02:19:17;11.23;;;2.90;;
20810;SDS011;10566;52.928;10.522;2023-04-01T02:21:49;13.97;;;3.07;;
20810;SDS011;10566;52.928;10.522;2023-04-01T02:24:17;10.57;;;3.00;;
20810;SDS011;10566;52.928;10.522;2023-04-01T02:26:43;11.43;;;3.17;;
20810;SDS011;10566;52.928;10.522;2023-04-01T02:29:12;9.67;;;2.80;;
20810;SDS011;10566;52.928;10.522;2023-04-01T02:31:38;9.00;;;2.77;;
20810;SDS011;10566;52.928;10.522;2023-04-01T02:34:06;11.80;;;3.00;;
20810;SDS011;10566;52.928;10.522;2023-04-01T02:36:32;9.77;;;2.60;;
20810;SDS011;10566;52.928;10.522;2023-04-01T02:39:00;11.60;;;3.03;;
20810;SDS011;10566;52.928;10.522;2023-04-01T02:41:28;9.00;;;3.00;;
20810;SDS011;10566;52.928;10.522;2023-04-01T02:43:54;12.03;;;3.20;;
20810;SDS011;10566;52.928;10.522;2023-04-01T02:46:22;8.23;;;2.97;;
20810;SDS011;10566;52.928;10.522;2023-04-01T02:48:48;9.83;;;2.80;;
20810;SDS011;10566;52.928;10.522;2023-04-01T02:51:18;12.43;;;3.07;;
20810;SDS011;10566;52.928;10.522;2023-04-01T02:53:45;9.90;;;3.00;;
20810;SDS011;10566;52.928;10.522;2023-04-01T02:56:11;10.17;;;3.10;;
20810;SDS011;10566;52.928;10.522;2023-04-01T02:58:37;15.87;;;3.37;;
20810;SDS011;10566;52.928;10.522;2023-04-01T03:01:03;12.23;;;3.20;;
20810;SDS011;10566;52.928;10.522;2023-04-01T03:03:29;10.97;;;3.07;;
20810;SDS011;10566;52.928;10.522;2023-04-01T03:05:55;10.83;;;3.10;;
20810;SDS011;10566;52.928;10.522;2023-04-01T03:08:23;14.73;;;3.00;;
20810;SDS011;10566;52.928;10.522;2023-04-01T03:10:49;12.10;;;3.23;;
20810;SDS011;10566;52.928;10.522;2023-04-01T03:13:16;10.87;;;3.13;;
20810;SDS011;10566;52.928;10.522;2023-04-01T03:15:42;12.67;;;3.70;;
20810;SDS011;10566;52.928;10.522;2023-04-01T03:18:09;15.77;;;3.53;;
20810;SDS011;10566;52.928;10.522;2023-04-01T03:20:35;13.97;;;3.87;;
20810;SDS011;10566;52.928;10.522;2023-04-01T03:23:01;10.33;;;3.20;;
20810;SDS011;10566;52.928;10.522;2023-04-01T03:25:28;15.90;;;4.13;;
20810;SDS011;10566;52.928;10.522;2023-04-01T03:27:55;36.53;;;15.23;;
20810;SDS011;10566;52.928;10.522;2023-04-01T03:30:24;12.07;;;3.97;;
20810;SDS011;10566;52.928;10.522;2023-04-01T03:32:50;14.87;;;4.03;;
20810;SDS011;10566;52.928;10.522;2023-04-01T03:35:17;14.43;;;4.20;;
20810;SDS011;10566;52.928;10.522;2023-04-01T03:37:44;14.87;;;3.73;;
20810;SDS011;10566;52.928;10.522;2023-04-01T03:40:10;15.90;;;4.47;;
20810;SDS011;10566;52.928;10.522;2023-04-01T03:42:36;14.77;;;3.90;;
20810;SDS011;10566;52.928;10.522;2023-04-01T03:45:03;14.27;;;4.50;;
20810;SDS011;10566;52.928;10.522;2023-04-01T03:47:30;15.60;;;4.53;;
20810;SDS011;10566;52.928;10.522;2023-04-01T03:49:56;11.77;;;4.67;;
20810;SDS011;10566;52.928;10.522;2023-04-01T03:52:22;17.03;;;4.73;;
20810;SDS011;10566;52.928;10.522;2023-04-01T03:54:48;15.20;;;4.63;;
20810;SDS011;10566;52.928;10.522;2023-04-01T03:57:14;14.63;;;5.10;;
20810;SDS011;10566;52.928;10.522;2023-04-01T03:59:40;16.93;;;5.10;;
20810;SDS011;10566;52.928;10.522;2023-04-01T04:02:06;18.73;;;5.23;;
20810;SDS011;10566;52.928;10.522;2023-04-01T04:04:32;15.10;;;4.93;;
20810;SDS011;10566;52.928;10.522;2023-04-01T04:06:58;14.63;;;5.10;;
20810;SDS011;10566;52.928;10.522;2023-04-01T04:09:24;15.20;;;5.47;;
20810;SDS011;10566;52.928;10.522;2023-04-01T04:11:50;15.77;;;5.17;;
20810;SDS011;10566;52.928;10.522;2023-04-01T04:14:17;25.87;;;11.47;;
20810;SDS011;10566;52.928;10.522;2023-04-01T04:16:43;19.23;;;7.17;;
20810;SDS011;10566;52.928;10.522;2023-04-01T04:19:09;12.87;;;4.90;;
20810;SDS011;10566;52.928;10.522;2023-04-01T04:21:35;13.70;;;5.10;;
20810;SDS011;10566;52.928;10.522;2023-04-01T04:24:01;15.47;;;5.57;;
20810;SDS011;10566;52.928;10.522;2023-04-01T04:26:27;12.90;;;5.10;;
20810;SDS011;10566;52.928;10.522;2023-04-01T04:28:54;13.17;;;5.30;;
20810;SDS011;10566;52.928;10.522;2023-04-01T04:31:21;22.90;;;5.70;;
20810;SDS011;10566;52.928;10.522;2023-04-01T04:33:48;15.33;;;5.50;;
20810;SDS011;10566;52.928;10.522;2023-04-01T04:36:14;18.27;;;5.43;;
20810;SDS011;10566;52.928;10.522;2023-04-01T04:38:40;18.00;;;5.63;;
20810;SDS011;10566;52.928;10.522;2023-04-01T04:41:10;15.93;;;5.47;;
20810;SDS011;10566;52.928;10.522;2023-04-01T04:43:37;16.10;;;6.10;;
20810;SDS011;10566;52.928;10.522;2023-04-01T04:46:04;16.60;;;6.10;;
20810;SDS011;10566;52.928;10.522;2023-04-01T04:48:31;15.60;;;5.27;;
20810;SDS011;10566;52.928;10.522;2023-04-01T04:50:57;18.97;;;6.13;;
20810;SDS011;10566;52.928;10.522;2023-04-01T04:53:23;16.53;;;6.03;;
20810;SDS011;10566;52.928;10.522;2023-04-01T04:55:50;14.87;;;5.90;;
20810;SDS011;10566;52.928;10.522;2023-04-01T04:58:16;15.23;;;6.37;;
20810;SDS011;10566;52.928;10.522;2023-04-01T05:00:42;16.73;;;6.10;;
20810;SDS011;10566;52.928;10.522;2023-04-01T05:03:09;15.37;;;7.00;;
20810;SDS011;10566;52.928;10.522;2023-04-01T05:05:35;19.93;;;6.17;;
20810;SDS011;10566;52.928;10.522;2023-04-01T05:08:01;13.17;;;5.50;;
20810;SDS011;10566;52.928;10.522;2023-04-01T05:10:27;16.17;;;6.50;;
20810;SDS011;10566;52.928;10.522;2023-04-01T05:12:53;21.87;;;6.10;;
20810;SDS011;10566;52.928;10.522;2023-04-01T05:15:19;12.93;;;6.17;;
20810;SDS011;10566;52.928;10.522;2023-04-01T05:17:45;16.07;;;6.10;;
20810;SDS011;10566;52.928;10.522;2023-04-01T05:20:12;17.17;;;5.90;;
20810;SDS011;10566;52.928;10.522;2023-04-01T05:22:38;16.13;;;6.00;;
20810;SDS011;10566;52.928;10.522;2023-04-01T05:25:05;18.33;;;5.90;;
20810;SDS011;10566;52.928;10.522;2023-04-01T05:27:31;13.53;;;5.50;;
20810;SDS011;10566;52.928;10.522;2023-04-01T05:29:57;18.80;;;5.27;;
20810;SDS011;10566;52.928;10.522;2023-04-01T05:32:23;22.73;;;11.00;;
20810;SDS011;10566;52.928;10.522;2023-04-01T05:34:52;30.50;;;15.00;;
20810;SDS011;10566;52.928;10.522;2023-04-01T05:37:19;20.83;;;7.57;;
20810;SDS011;10566;52.928;10.522;2023-04-01T05:39:45;15.67;;;6.90;;
20810;SDS011;10566;52.928;10.522;2023-04-01T05:42:11;15.77;;;7.83;;
20810;SDS011;10566;52.928;10.522;2023-04-01T05:44:37;18.07;;;7.90;;
20810;SDS011;10566;52.928;10.522;2023-04-01T05:47:03;25.87;;;10.13;;
20810;SDS011;10566;52.928;10.522;2023-04-01T05:49:29;27.27;;;10.23;;
20810;SDS011;10566;52.928;10.522;2023-04-01T05:51:56;23.50;;;9.37;;
20810;SDS011;10566;52.928;10.522;2023-04-01T05:54:22;22.30;;;8.73;;
20810;SDS011;10566;52.928;10.522;2023-04-01T05:56:48;17.57;;;7.60;;
20810;SDS011;10566;52.928;10.522;2023-04-01T05:59:14;14.23;;;6.43;;
20810;SDS011;10566;52.928;10.522;2023-04-01T06:01:40;14.33;;;6.07;;
20810;SDS011;10566;52.928;10.522;2023-04-01T06:04:06;13.93;;;5.97;;
20810;SDS011;10566;52.928;10.522;2023-04-01T06:06:32;10.40;;;5.10;;
20810;SDS011;10566;52.928;10.522;2023-04-01T06:09:06;13.47;;;5.50;;
20810;SDS011;10566;52.928;10.522;2023-04-01T06:27:13;11.47;;;5.30;;
20810;SDS011;10566;52.928;10.522;2023-04-01T06:32:43;14.47;;;5.13;;
20810;SDS011;10566;52.928;10.522;2023-04-01T06:35:17;15.20;;;5.40;;
20810;SDS011;10566;52.928;10.522;2023-04-01T06:37:52;11.90;;;4.90;;
20810;SDS011;10566;52.928;10.522;2023-04-01T06:43:16;14.00;;;5.07;;
20810;SDS011;10566;52.928;10.522;2023-04-01T06:45:59;10.83;;;4.60;;
20810;SDS011;10566;52.928;10.522;2023-04-01T06:48:33;14.23;;;5.27;;
20810;SDS011;10566;52.928;10.522;2023-04-01T06:53:32;13.30;;;4.90;;
20810;SDS011;10566;52.928;10.522;2023-04-01T06:56:08;12.87;;;4.70;;
20810;SDS011;10566;52.928;10.522;2023-04-01T06:58:42;13.47;;;5.23;;
20810;SDS011;10566;52.928;10.522;2023-04-01T07:01:12;12.43;;;5.27;;
20810;SDS011;10566;52.928;10.522;2023-04-01T07:03:43;12.53;;;4.93;;
20810;SDS011;10566;52.928;10.522;2023-04-01T07:06:13;9.07;;;4.60;;
20810;SDS011;10566;52.928;10.522;2023-04-01T07:08:40;10.50;;;5.17;;
20810;SDS011;10566;52.928;10.522;2023-04-01T07:11:11;10.50;;;5.00;;
20810;SDS011;10566;52.928;10.522;2023-04-01T07:13:49;10.87;;;5.10;;
20810;SDS011;10566;52.928;10.522;2023-04-01T07:16:24;14.23;;;5.60;;
20810;SDS011;10566;52.928;10.522;2023-04-01T07:18:54;11.23;;;4.57;;
20810;SDS011;10566;52.928;10.522;2023-04-01T07:21:30;12.97;;;5.20;;
20810;SDS011;10566;52.928;10.522;2023-04-01T07:24:01;10.03;;;5.20;;
20810;SDS011;10566;52.928;10.522;2023-04-01T07:26:28;12.77;;;5.23;;
20810;SDS011;10566;52.928;10.522;2023-04-01T07:28:54;9.63;;;5.47;;
20810;SDS011;10566;52.928;10.522;2023-04-01T07:31:30;9.17;;;5.10;;
20810;SDS011;10566;52.928;10.522;2023-04-01T07:34:06;10.30;;;5.13;;
20810;SDS011;10566;52.928;10.522;2023-04-01T07:36:42;10.70;;;5.20;;
20810;SDS011;10566;52.928;10.522;2023-04-01T07:44:35;12.00;;;4.80;;
20810;SDS011;10566;52.928;10.522;2023-04-01T07:47:14;11.87;;;4.47;;
20810;SDS011;10566;52.928;10.522;2023-04-01T07:55:01;10.97;;;4.27;;
20810;SDS011;10566;52.928;10.522;2023-04-01T08:02:35;8.60;;;3.40;;
20810;SDS011;10566;52.928;10.522;2023-04-01T08:10:32;8.60;;;4.37;;
20810;SDS011;10566;52.928;10.522;2023-04-01T08:13:08;12.33;;;4.97;;
20810;SDS011;10566;52.928;10.522;2023-04-01T08:20:47;8.87;;;4.73;;
20810;SDS011;10566;52.928;10.522;2023-04-01T08:23:29;10.50;;;4.60;;
20810;SDS011;10566;52.928;10.522;2023-04-01T08:26:42;9.93;;;4.27;;
20810;SDS011;10566;52.928;10.522;2023-04-01T08:28:44;5.80;;;3.50;;
20810;SDS011;10566;52.928;10.522;2023-04-01T08:31:16;7.13;;;2.70;;
20810;SDS011;10566;52.928;10.522;2023-04-01T08:33:44;5.60;;;2.63;;
20810;SDS011;10566;52.928;10.522;2023-04-01T08:36:12;6.13;;;2.27;;
20810;SDS011;10566;52.928;10.522;2023-04-01T08:38:44;7.43;;;1.90;;
20810;SDS011;10566;52.928;10.522;2023-04-01T08:41:27;6.20;;;1.90;;
20810;SDS011;10566;52.928;10.522;2023-04-01T08:46:39;6.53;;;2.10;;
20810;SDS011;10566;52.928;10.522;2023-04-01T08:49:17;6.17;;;1.60;;
20810;SDS011;10566;52.928;10.522;2023-04-01T08:52:02;3.93;;;1.73;;
20810;SDS011;10566;52.928;10.522;2023-04-01T08:57:21;5.87;;;1.80;;
20810;SDS011;10566;52.928;10.522;2023-04-01T09:08:00;5.80;;;1.87;;
20810;SDS011;10566;52.928;10.522;2023-04-01T09:10:34;3.47;;;1.63;;
20810;SDS011;10566;52.928;10.522;2023-04-01T09:13:10;1.80;;;0.80;;
20810;SDS011;10566;52.928;10.522;2023-04-01T09:21:01;2.80;;;0.80;;
20810;SDS011;10566;52.928;10.522;2023-04-01T09:28:28;1.60;;;0.70;;
20810;SDS011;10566;52.928;10.522;2023-04-01T09:30:58;1.17;;;0.70;;
20810;SDS011;10566;52.928;10.522;2023-04-01T09:33:41;1.73;;;0.60;;
20810;SDS011;10566;52.928;10.522;2023-04-01T09:41:21;2.00;;;0.90;;
20810;SDS011;10566;52.928;10.522;2023-04-01T09:43:57;1.30;;;0.70;;
20810;SDS011;10566;52.928;10.522;2023-04-01T09:46:26;2.90;;;0.90;;
20810;SDS011;10566;52.928;10.522;2023-04-01T09:54:07;2.77;;;1.00;;
20810;SDS011;10566;52.928;10.522;2023-04-01T10:07:35;1.40;;;0.60;;
20810;SDS011;10566;52.928;10.522;2023-04-01T10:10:16;1.30;;;0.80;;
20810;SDS011;10566;52.928;10.522;2023-04-01T10:15:51;1.20;;;0.70;;
20810;SDS011;10566;52.928;10.522;2023-04-01T10:26:29;1.70;;;0.90;;
20810;SDS011;10566;52.928;10.522;2023-04-01T10:32:02;1.73;;;0.90;;
20810;SDS011;10566;52.928;10.522;2023-04-01T10:37:23;2.60;;;1.23;;
20810;SDS011;10566;52.928;10.522;2023-04-01T10:40:06;2.27;;;1.00;;
20810;SDS011;10566;52.928;10.522;2023-04-01T10:42:47;2.07;;;1.00;;
20810;SDS011;10566;52.928;10.522;2023-04-01T10:50:33;1.93;;;1.07;;
20810;SDS011;10566;52.928;10.522;2023-04-01T10:58:29;1.67;;;0.90;;
20810;SDS011;10566;52.928;10.522;2023-04-01T11:01:12;1.20;;;0.70;;
20810;SDS011;10566;52.928;10.522;2023-04-01T11:06:22;1.87;;;1.00;;
20810;SDS011;10566;52.928;10.522;2023-04-01T11:11:44;3.20;;;1.37;;
20810;SDS011;10566;52.928;10.522;2023-04-01T11:17:27;2.70;;;1.20;;
20810;SDS011;10566;52.928;10.522;2023-04-01T11:30:22;2.37;;;1.30;;
20810;SDS011;10566;52.928;10.522;2023-04-01T11:37:55;2.20;;;1.27;;
20810;SDS011;10566;52.928;10.522;2023-04-01T11:40:29;1.83;;;0.90;;
20810;SDS011;10566;52.928;10.522;2023-04-01T11:50:38;2.17;;;1.00;;
20810;SDS011;10566;52.928;10.522;2023-04-01T11:53:27;2.40;;;1.10;;
20810;SDS011;10566;52.928;10.522;2023-04-01T11:56:02;2.10;;;1.00;;
20810;SDS011;10566;52.928;10.522;2023-04-01T12:01:35;3.60;;;1.13;;
20810;SDS011;10566;52.928;10.522;2023-04-01T12:04:05;1.70;;;0.90;;
20810;SDS011;10566;52.928;10.522;2023-04-01T12:09:41;2.43;;;1.20;;
20810;SDS011;10566;52.928;10.522;2023-04-01T12:20:14;2.73;;;1.30;;
20810;SDS011;10566;52.928;10.522;2023-04-01T12:22:49;2.90;;;1.17;;
20810;SDS011;10566;52.928;10.522;2023-04-01T12:30:33;2.63;;;1.10;;
20810;SDS011;10566;52.928;10.522;2023-04-01T12:33:13;3.23;;;1.30;;
20810;SDS011;10566;52.928;10.522;2023-04-01T12:35:46;4.30;;;2.00;;
20810;SDS011;10566;52.928;10.522;2023-04-01T12:41:09;1.80;;;0.93;;
20810;SDS011;10566;52.928;10.522;2023-04-01T12:46:24;3.13;;;1.20;;
20810;SDS011;10566;52.928;10.522;2023-04-01T13:07:21;2.83;;;1.10;;
20810;SDS011;10566;52.928;10.522;2023-04-01T13:09:54;2.40;;;1.00;;
20810;SDS011;10566;52.928;10.522;2023-04-01T13:17:56;3.43;;;1.03;;
20810;SDS011;10566;52.928;10.522;2023-04-01T13:28:15;3.30;;;1.20;;
20810;SDS011;10566;52.928;10.522;2023-04-01T13:30:44;2.03;;;1.00;;
20810;SDS011;10566;52.928;10.522;2023-04-01T13:33:32;3.60;;;1.20;;
20810;SDS011;10566;52.928;10.522;2023-04-01T13:36:06;3.23;;;1.43;;
20810;SDS011;10566;52.928;10.522;2023-04-01T13:54:00;4.60;;;2.50;;
20810;SDS011;10566;52.928;10.522;2023-04-01T13:56:33;5.17;;;2.33;;
20810;SDS011;10566;52.928;10.522;2023-04-01T13:59:25;4.20;;;1.93;;
20810;SDS011;10566;52.928;10.522;2023-04-01T14:02:02;6.43;;;2.93;;
20810;SDS011;10566;52.928;10.522;2023-04-01T14:04:35;3.60;;;1.80;;
20810;SDS011;10566;52.928;10.522;2023-04-01T14:12:30;2.63;;;1.53;;
20810;SDS011;10566;52.928;10.522;2023-04-01T14:15:05;7.27;;;2.23;;
20810;SDS011;10566;52.928;10.522;2023-04-01T14:22:56;4.03;;;1.90;;
20810;SDS011;10566;52.928;10.522;2023-04-01T14:36:02;2.80;;;1.50;;
20810;SDS011;10566;52.928;10.522;2023-04-01T14:46:53;3.50;;;1.83;;
20810;SDS011;10566;52.928;10.522;2023-04-01T14:49:37;4.50;;;1.90;;
20810;SDS011;10566;52.928;10.522;2023-04-01T14:54:49;4.37;;;1.90;;
20810;SDS011;10566;52.928;10.522;2023-04-01T14:57:23;5.23;;;2.50;;
20810;SDS011;10566;52.928;10.522;2023-04-01T15:00:01;4.97;;;2.27;;
20810;SDS011;10566;52.928;10.522;2023-04-01T15:02:43;5.97;;;2.13;;
20810;SDS011;10566;52.928;10.522;2023-04-01T15:08:05;4.37;;;2.27;;
20810;SDS011;10566;52.928;10.522;2023-04-01T15:10:43;3.77;;;2.00;;
20810;SDS011;10566;52.928;10.522;2023-04-01T15:18:21;4.50;;;2.57;;
20810;SDS011;10566;52.928;10.522;2023-04-01T15:21:02;4.30;;;1.93;;
20810;SDS011;10566;52.928;10.522;2023-04-01T15:26:07;4.83;;;2.33;;
20810;SDS011;10566;52.928;10.522;2023-04-01T15:28:39;5.27;;;2.00;;
20810;SDS011;10566;52.928;10.522;2023-04-01T15:33:57;4.83;;;2.40;;
20810;SDS011;10566;52.928;10.522;2023-04-01T15:38:53;6.43;;;3.17;;
20810;SDS011;10566;52.928;10.522;2023-04-01T15:41:49;9.17;;;4.50;;
20810;SDS011;10566;52.928;10.522;2023-04-01T15:46:54;7.03;;;3.60;;
20810;SDS011;10566;52.928;10.522;2023-04-01T15:54:39;5.27;;;2.67;;
20810;SDS011;10566;52.928;10.522;2023-04-01T16:02:31;6.53;;;2.90;;
20810;SDS011;10566;52.928;10.522;2023-04-01T16:05:19;4.77;;;2.90;;
20810;SDS011;10566;52.928;10.522;2023-04-01T16:07:54;5.43;;;2.00;;
20810;SDS011;10566;52.928;10.522;2023-04-01T16:10:23;6.87;;;2.70;;
20810;SDS011;10566;52.928;10.522;2023-04-01T16:20:45;4.13;;;2.23;;
20810;SDS011;10566;52.928;10.522;2023-04-01T16:26:08;7.03;;;2.90;;
20810;SDS011;10566;52.928;10.522;2023-04-01T16:34:14;5.20;;;2.20;;
20810;SDS011;10566;52.928;10.522;2023-04-01T16:36:44;6.27;;;2.73;;
20810;SDS011;10566;52.928;10.522;2023-04-01T16:39:21;5.63;;;2.63;;
20810;SDS011;10566;52.928;10.522;2023-04-01T16:42:08;6.60;;;2.90;;
20810;SDS011;10566;52.928;10.522;2023-04-01T16:44:46;6.63;;;2.40;;
20810;SDS011;10566;52.928;10.522;2023-04-01T16:47:15;6.07;;;2.67;;
20810;SDS011;10566;52.928;10.522;2023-04-01T16:49:51;8.90;;;2.70;;
20810;SDS011;10566;52.928;10.522;2023-04-01T16:52:30;4.50;;;2.60;;
20810;SDS011;10566;52.928;10.522;2023-04-01T16:55:01;6.87;;;2.87;;
20810;SDS011;10566;52.928;10.522;2023-04-01T17:00:25;9.47;;;2.93;;
20810;SDS011;10566;52.928;10.522;2023-04-01T17:03:08;6.53;;;3.07;;
20810;SDS011;10566;52.928;10.522;2023-04-01T17:08:24;10.43;;;4.13;;
20810;SDS011;10566;52.928;10.522;2023-04-01T17:11:12;7.93;;;4.23;;
20810;SDS011;10566;52.928;10.522;2023-04-01T17:13:50;6.40;;;3.57;;
20810;SDS011;10566;52.928;10.522;2023-04-01T17:19:23;7.13;;;3.27;;
20810;SDS011;10566;52.928;10.522;2023-04-01T17:30:32;9.47;;;4.67;;
20810;SDS011;10566;52.928;10.522;2023-04-01T17:32:47;6.27;;;3.53;;
20810;SDS011;10566;52.928;10.522;2023-04-01T17:45:37;8.27;;;4.20;;
20810;SDS011;10566;52.928;10.522;2023-04-01T17:50:57;10.97;;;5.37;;
20810;SDS011;10566;52.928;10.522;2023-04-01T17:53:28;11.57;;;5.00;;
20810;SDS011;10566;52.928;10.522;2023-04-01T17:58:44;13.50;;;5.87;;
20810;SDS011;10566;52.928;10.522;2023-04-01T18:16:30;16.20;;;7.40;;
20810;SDS011;10566;52.928;10.522;2023-04-01T18:19:08;10.00;;;4.70;;
20810;SDS011;10566;52.928;10.522;2023-04-01T18:24:30;9.10;;;4.80;;
20810;SDS011;10566;52.928;10.522;2023-04-01T18:27:11;8.60;;;4.23;;
20810;SDS011;10566;52.928;10.522;2023-04-01T18:29:49;9.67;;;4.57;;
20810;SDS011;10566;52.928;10.522;2023-04-01T18:35:15;8.27;;;4.97;;
20810;SDS011;10566;52.928;10.522;2023-04-01T18:45:35;12.90;;;6.03;;
20810;SDS011;10566;52.928;10.522;2023-04-01T18:48:14;11.03;;;5.80;;
20810;SDS011;10566;52.928;10.522;2023-04-01T18:50:43;13.83;;;6.77;;
20810;SDS011;10566;52.928;10.522;2023-04-01T18:53:15;10.60;;;5.80;;
20810;SDS011;10566;52.928;10.522;2023-04-01T18:55:46;10.83;;;5.67;;
20810;SDS011;10566;52.928;10.522;2023-04-01T18:58:23;11.53;;;5.70;;
20810;SDS011;10566;52.928;10.522;2023-04-01T19:01:05;11.93;;;5.30;;
20810;SDS011;10566;52.928;10.522;2023-04-01T19:05:59;13.07;;;6.23;;
20810;SDS011;10566;52.928;10.522;2023-04-01T19:08:28;11.53;;;5.80;;
20810;SDS011;10566;52.928;10.522;2023-04-01T19:11:09;12.03;;;5.40;;
20810;SDS011;10566;52.928;10.522;2023-04-01T19:18:53;15.27;;;7.83;;
20810;SDS011;10566;52.928;10.522;2023-04-01T19:21:38;13.00;;;6.90;;
20810;SDS011;10566;52.928;10.522;2023-04-01T19:29:36;15.23;;;8.07;;
20810;SDS011;10566;52.928;10.522;2023-04-01T19:32:13;15.33;;;7.53;;
20810;SDS011;10566;52.928;10.522;2023-04-01T19:34:47;14.77;;;6.30;;
20810;SDS011;10566;52.928;10.522;2023-04-01T19:40:13;11.97;;;6.27;;
20810;SDS011;10566;52.928;10.522;2023-04-01T19:48:12;13.23;;;6.37;;
20810;SDS011;10566;52.928;10.522;2023-04-01T19:53:16;14.13;;;5.60;;
20810;SDS011;10566;52.928;10.522;2023-04-01T19:55:49;11.33;;;5.77;;
20810;SDS011;10566;52.928;10.522;2023-04-01T19:58:24;14.87;;;6.03;;
20810;SDS011;10566;52.928;10.522;2023-04-01T20:00:52;14.13;;;6.00;;
20810;SDS011;10566;52.928;10.522;2023-04-01T20:08:41;11.07;;;6.33;;
20810;SDS011;10566;52.928;10.522;2023-04-01T20:16:11;19.80;;;5.57;;
20810;SDS011;10566;52.928;10.522;2023-04-01T20:18:51;11.77;;;5.30;;
20810;SDS011;10566;52.928;10.522;2023-04-01T20:21:29;15.97;;;6.67;;
20810;SDS011;10566;52.928;10.522;2023-04-01T20:24:01;12.23;;;6.17;;
20810;SDS011;10566;52.928;10.522;2023-04-01T20:26:32;10.77;;;5.27;;
20810;SDS011;10566;52.928;10.522;2023-04-01T20:31:46;14.20;;;6.90;;
20810;SDS011;10566;52.928;10.522;2023-04-01T20:37:16;14.77;;;5.93;;
20810;SDS011;10566;52.928;10.522;2023-04-01T20:42:22;14.63;;;5.13;;
20810;SDS011;10566;52.928;10.522;2023-04-01T20:44:56;11.27;;;5.07;;
20810;SDS011;10566;52.928;10.522;2023-04-01T20:47:50;15.77;;;5.43;;
20810;SDS011;10566;52.928;10.522;2023-04-01T20:50:28;10.67;;;4.60;;
20810;SDS011;10566;52.928;10.522;2023-04-01T20:53:11;14.23;;;5.33;;
20810;SDS011;10566;52.928;10.522;2023-04-01T20:58:23;12.33;;;5.30;;
20810;SDS011;10566;52.928;10.522;2023-04-01T21:00:56;13.40;;;4.57;;
20810;SDS011;10566;52.928;10.522;2023-04-01T21:03:29;12.00;;;5.37;;
20810;SDS011;10566;52.928;10.522;2023-04-01T21:06:09;13.23;;;5.50;;
20810;SDS011;10566;52.928;10.522;2023-04-01T21:11:09;12.10;;;5.77;;
20810;SDS011;10566;52.928;10.522;2023-04-01T21:14:01;9.43;;;5.40;;
20810;SDS011;10566;52.928;10.522;2023-04-01T21:16:31;9.03;;;3.40;;
20810;SDS011;10566;52.928;10.522;2023-04-01T21:19:11;11.30;;;4.60;;
20810;SDS011;10566;52.928;10.522;2023-04-01T21:29:30;7.33;;;3.43;;
20810;SDS011;10566;52.928;10.522;2023-04-01T21:32:06;7.07;;;3.20;;
20810;SDS011;10566;52.928;10.522;2023-04-01T21:34:41;9.90;;;3.53;;
20810;SDS011;10566;52.928;10.522;2023-04-01T21:39:50;11.70;;;4.20;;
20810;SDS011;10566;52.928;10.522;2023-04-01T21:43:05;10.13;;;3.73;;
20810;SDS011;10566;52.928;10.522;2023-04-01T21:53:16;10.00;;;3.73;;
20810;SDS011;10566;52.928;10.522;2023-04-01T22:06:28;7.67;;;3.90;;
20810;SDS011;10566;52.928;10.522;2023-04-01T22:09:00;8.17;;;3.70;;
20810;SDS011;10566;52.928;10.522;2023-04-01T22:11:46;8.83;;;2.97;;
20810;SDS011;10566;52.928;10.522;2023-04-01T22:14:39;10.13;;;3.20;;
20810;SDS011;10566;52.928;10.522;2023-04-01T22:17:11;10.03;;;3.20;;
20810;SDS011;10566;52.928;10.522;2023-04-01T22:19:52;8.73;;;2.67;;
20810;SDS011;10566;52.928;10.522;2023-04-01T22:24:53;9.10;;;3.10;;
20810;SDS011;10566;52.928;10.522;2023-04-01T22:30:22;11.57;;;2.90;;
20810;SDS011;10566;52.928;10.522;2023-04-01T22:35:39;6.97;;;2.50;;
20810;SDS011;10566;52.928;10.522;2023-04-01T22:38:12;7.57;;;2.73;;
20810;SDS011;10566;52.928;10.522;2023-04-01T22:40:53;8.77;;;2.70;;
20810;SDS011;10566;52.928;10.522;2023-04-01T22:43:25;7.77;;;2.23;;
20810;SDS011;10566;52.928;10.522;2023-04-01T22:56:02;10.43;;;2.63;;
20810;SDS011;10566;52.928;10.522;2023-04-01T22:58:30;10.17;;;2.50;;
20810;SDS011;10566;52.928;10.522;2023-04-01T23:00:59;7.20;;;2.37;;